sensor_id;sensor_type;location;lat;lon;timestamp;pressure;altitude;pressure_sealevel;temperature;humidity
8641;BME280;4358;42.100;25.222;2022-07-29T00:00:29;100082.59;;;25.23;87.24
8641;BME280;4358;42.100;25.222;2022-07-29T00:02:55;100091.66;;;25.30;87.31
8641;BME280;4358;42.100;25.222;2022-07-29T00:05:23;100093.44;;;25.23;88.04
8641;BME280;4358;42.100;25.222;2022-07-29T00:07:50;100089.88;;;25.23;88.24
8641;BME280;4358;42.100;25.222;2022-07-29T00:10:18;100089.06;;;25.22;88.25
8641;BME280;4358;42.100;25.222;2022-07-29T00:12:45;100081.47;;;25.18;89.39
8641;BME280;4358;42.100;25.222;2022-07-29T00:15:12;100081.69;;;25.16;90.01
8641;BME280;4358;42.100;25.222;2022-07-29T00:17:38;100085.16;;;25.10;90.45
8641;BME280;4358;42.100;25.222;2022-07-29T00:20:07;100081.78;;;25.08;90.96
8641;BME280;4358;42.100;25.222;2022-07-29T00:22:36;100077.53;;;24.99;91.44
8641;BME280;4358;42.100;25.222;2022-07-29T00:25:04;100071.16;;;24.77;92.97
8641;BME280;4358;42.100;25.222;2022-07-29T00:27:31;100062.19;;;24.77;93.20
8641;BME280;4358;42.100;25.222;2022-07-29T00:29:58;100059.19;;;24.72;93.35
8641;BME280;4358;42.100;25.222;2022-07-29T00:32:25;100061.91;;;24.72;93.77
8641;BME280;4358;42.100;25.222;2022-07-29T00:34:52;100041.91;;;24.58;94.53
8641;BME280;4358;42.100;25.222;2022-07-29T00:37:43;100045.09;;;24.47;95.46
8641;BME280;4358;42.100;25.222;2022-07-29T00:40:11;100051.75;;;24.44;96.44
8641;BME280;4358;42.100;25.222;2022-07-29T00:42:44;100056.53;;;24.42;96.76
8641;BME280;4358;42.100;25.222;2022-07-29T00:45:12;100069.25;;;24.27;98.05
8641;BME280;4358;42.100;25.222;2022-07-29T00:47:39;100076.44;;;24.20;99.27
8641;BME280;4358;42.100;25.222;2022-07-29T00:50:08;100071.72;;;24.14;100.00
8641;BME280;4358;42.100;25.222;2022-07-29T00:52:36;100071.72;;;24.14;100.00
8641;BME280;4358;42.100;25.222;2022-07-29T00:55:07;100078.94;;;24.07;100.00
8641;BME280;4358;42.100;25.222;2022-07-29T00:57:34;100081.31;;;23.87;100.00
8641;BME280;4358;42.100;25.222;2022-07-29T01:00:02;100076.25;;;23.70;100.00
8641;BME280;4358;42.100;25.222;2022-07-29T01:02:30;100073.97;;;23.58;100.00
8641;BME280;4358;42.100;25.222;2022-07-29T01:04:57;100081.22;;;23.35;100.00
8641;BME280;4358;42.100;25.222;2022-07-29T01:07:25;100081.22;;;23.12;100.00
8641;BME280;4358;42.100;25.222;2022-07-29T01:09:53;100086.19;;;23.01;100.00
8641;BME280;4358;42.100;25.222;2022-07-29T01:12:24;100086.22;;;22.93;100.00
8641;BME280;4358;42.100;25.222;2022-07-29T01:14:53;100078.28;;;22.91;100.00
8641;BME280;4358;42.100;25.222;2022-07-29T01:17:24;100074.38;;;22.94;100.00
8641;BME280;4358;42.100;25.222;2022-07-29T01:19:56;100069.63;;;22.96;100.00
8641;BME280;4358;42.100;25.222;2022-07-29T01:22:37;99994.78;;;22.49;100.00
8641;BME280;4358;42.100;25.222;2022-07-29T01:25:30;100079.47;;;22.89;100.00
8641;BME280;4358;42.100;25.222;2022-07-29T01:28:13;100066.00;;;22.80;100.00
8641;BME280;4358;42.100;25.222;2022-07-29T01:30:46;100070.94;;;22.69;100.00
8641;BME280;4358;42.100;25.222;2022-07-29T01:33:17;100064.34;;;22.63;100.00
8641;BME280;4358;42.100;25.222;2022-07-29T01:35:58;100063.03;;;22.59;100.00
8641;BME280;4358;42.100;25.222;2022-07-29T01:38:28;100049.75;;;22.42;100.00
8641;BME280;4358;42.100;25.222;2022-07-29T01:41:01;100059.69;;;22.49;100.00
8641;BME280;4358;42.100;25.222;2022-07-29T01:43:36;100059.91;;;22.39;100.00
8641;BME280;4358;42.100;25.222;2022-07-29T01:46:11;100061.97;;;22.21;100.00
8641;BME280;4358;42.100;25.222;2022-07-29T01:48:44;100048.13;;;22.16;100.00
8641;BME280;4358;42.100;25.222;2022-07-29T01:51:14;100056.78;;;22.12;100.00
8641;BME280;4358;42.100;25.222;2022-07-29T01:53:55;100051.03;;;21.98;100.00
8641;BME280;4358;42.100;25.222;2022-07-29T01:56:25;100051.56;;;21.94;100.00
8641;BME280;4358;42.100;25.222;2022-07-29T01:58:55;100056.66;;;21.97;100.00
8641;BME280;4358;42.100;25.222;2022-07-29T02:01:26;100043.25;;;22.04;100.00
8641;BME280;4358;42.100;25.222;2022-07-29T02:03:54;100042.25;;;22.13;100.00
8641;BME280;4358;42.100;25.222;2022-07-29T02:06:22;100044.75;;;22.14;100.00
8641;BME280;4358;42.100;25.222;2022-07-29T02:08:50;100040.53;;;22.20;100.00
8641;BME280;4358;42.100;25.222;2022-07-29T02:11:19;100050.81;;;22.24;100.00
8641;BME280;4358;42.100;25.222;2022-07-29T02:13:46;100051.69;;;22.17;100.00
8641;BME280;4358;42.100;25.222;2022-07-29T02:16:15;100042.63;;;22.02;100.00
8641;BME280;4358;42.100;25.222;2022-07-29T02:18:45;100042.97;;;21.82;100.00
8641;BME280;4358;42.100;25.222;2022-07-29T02:21:20;100039.41;;;21.74;100.00
8641;BME280;4358;42.100;25.222;2022-07-29T02:23:49;100041.94;;;21.67;100.00
8641;BME280;4358;42.100;25.222;2022-07-29T02:26:19;100029.13;;;21.53;100.00
8641;BME280;4358;42.100;25.222;2022-07-29T02:28:47;100046.34;;;21.52;100.00
8641;BME280;4358;42.100;25.222;2022-07-29T02:31:16;100043.97;;;21.41;100.00
8641;BME280;4358;42.100;25.222;2022-07-29T02:33:47;100040.59;;;21.31;100.00
8641;BME280;4358;42.100;25.222;2022-07-29T02:36:15;100040.28;;;21.26;100.00
8641;BME280;4358;42.100;25.222;2022-07-29T02:38:43;100046.38;;;21.20;100.00
8641;BME280;4358;42.100;25.222;2022-07-29T02:41:25;100049.66;;;21.05;100.00
8641;BME280;4358;42.100;25.222;2022-07-29T02:43:56;100039.19;;;20.86;100.00
8641;BME280;4358;42.100;25.222;2022-07-29T02:46:28;100045.88;;;20.66;100.00
8641;BME280;4358;42.100;25.222;2022-07-29T02:49:02;100045.75;;;20.42;100.00
8641;BME280;4358;42.100;25.222;2022-07-29T02:51:39;100038.34;;;20.36;100.00
8641;BME280;4358;42.100;25.222;2022-07-29T02:54:07;100040.19;;;20.35;100.00
8641;BME280;4358;42.100;25.222;2022-07-29T02:56:36;100051.13;;;20.34;100.00
8641;BME280;4358;42.100;25.222;2022-07-29T02:59:10;100046.34;;;20.27;100.00
8641;BME280;4358;42.100;25.222;2022-07-29T03:01:40;100026.06;;;20.15;100.00
8641;BME280;4358;42.100;25.222;2022-07-29T03:04:11;100049.69;;;20.21;100.00
8641;BME280;4358;42.100;25.222;2022-07-29T03:06:40;100043.78;;;20.18;100.00
8641;BME280;4358;42.100;25.222;2022-07-29T03:09:07;100037.88;;;20.14;100.00
8641;BME280;4358;42.100;25.222;2022-07-29T03:11:35;100052.22;;;20.23;100.00
8641;BME280;4358;42.100;25.222;2022-07-29T03:14:02;100050.03;;;20.26;100.00
8641;BME280;4358;42.100;25.222;2022-07-29T03:16:30;100056.88;;;20.39;100.00
8641;BME280;4358;42.100;25.222;2022-07-29T03:18:58;100054.88;;;20.41;100.00
8641;BME280;4358;42.100;25.222;2022-07-29T03:21:27;100059.78;;;20.45;100.00
8641;BME280;4358;42.100;25.222;2022-07-29T03:23:54;100060.13;;;20.50;100.00
8641;BME280;4358;42.100;25.222;2022-07-29T03:26:20;100068.03;;;20.52;100.00
8641;BME280;4358;42.100;25.222;2022-07-29T03:28:47;100065.88;;;20.55;100.00
8641;BME280;4358;42.100;25.222;2022-07-29T03:31:14;100076.50;;;20.57;100.00
8641;BME280;4358;42.100;25.222;2022-07-29T03:33:41;100074.47;;;20.59;100.00
8641;BME280;4358;42.100;25.222;2022-07-29T03:36:08;100075.69;;;20.64;100.00
8641;BME280;4358;42.100;25.222;2022-07-29T03:38:37;100076.88;;;20.70;100.00
8641;BME280;4358;42.100;25.222;2022-07-29T03:41:06;100080.59;;;20.69;100.00
8641;BME280;4358;42.100;25.222;2022-07-29T03:43:36;100081.28;;;20.79;100.00
8641;BME280;4358;42.100;25.222;2022-07-29T03:46:06;100080.66;;;20.85;100.00
8641;BME280;4358;42.100;25.222;2022-07-29T03:48:36;100074.59;;;20.99;100.00
8641;BME280;4358;42.100;25.222;2022-07-29T03:51:06;100083.59;;;21.08;100.00
8641;BME280;4358;42.100;25.222;2022-07-29T03:53:33;100091.88;;;21.14;100.00
8641;BME280;4358;42.100;25.222;2022-07-29T03:56:04;100091.75;;;21.24;100.00
8641;BME280;4358;42.100;25.222;2022-07-29T03:58:33;100095.63;;;21.30;100.00
8641;BME280;4358;42.100;25.222;2022-07-29T04:01:00;100088.19;;;21.32;100.00
8641;BME280;4358;42.100;25.222;2022-07-29T04:03:27;100101.03;;;21.46;100.00
8641;BME280;4358;42.100;25.222;2022-07-29T04:05:58;100089.56;;;21.52;100.00
8641;BME280;4358;42.100;25.222;2022-07-29T04:08:26;100101.38;;;21.59;100.00
8641;BME280;4358;42.100;25.222;2022-07-29T04:10:52;100090.75;;;21.66;100.00
8641;BME280;4358;42.100;25.222;2022-07-29T04:13:21;100098.50;;;21.69;100.00
8641;BME280;4358;42.100;25.222;2022-07-29T04:15:48;100096.66;;;21.69;100.00
8641;BME280;4358;42.100;25.222;2022-07-29T04:18:15;100108.13;;;21.79;100.00
8641;BME280;4358;42.100;25.222;2022-07-29T04:20:42;100100.34;;;21.84;100.00
8641;BME280;4358;42.100;25.222;2022-07-29T04:23:08;100101.69;;;21.88;100.00
8641;BME280;4358;42.100;25.222;2022-07-29T04:25:37;100111.00;;;21.94;100.00
8641;BME280;4358;42.100;25.222;2022-07-29T04:28:04;100108.16;;;21.95;100.00
8641;BME280;4358;42.100;25.222;2022-07-29T04:30:32;100106.63;;;22.01;100.00
8641;BME280;4358;42.100;25.222;2022-07-29T04:33:00;100118.94;;;22.12;100.00
8641;BME280;4358;42.100;25.222;2022-07-29T04:35:27;100110.81;;;22.20;100.00
8641;BME280;4358;42.100;25.222;2022-07-29T04:37:54;100113.84;;;22.33;100.00
8641;BME280;4358;42.100;25.222;2022-07-29T04:40:21;100114.47;;;22.43;100.00
8641;BME280;4358;42.100;25.222;2022-07-29T04:42:48;100119.16;;;22.57;100.00
8641;BME280;4358;42.100;25.222;2022-07-29T04:45:15;100122.69;;;22.66;100.00
8641;BME280;4358;42.100;25.222;2022-07-29T04:47:43;100120.13;;;22.80;100.00
8641;BME280;4358;42.100;25.222;2022-07-29T04:50:11;100114.63;;;22.97;100.00
8641;BME280;4358;42.100;25.222;2022-07-29T04:52:38;100119.28;;;23.11;100.00
8641;BME280;4358;42.100;25.222;2022-07-29T04:55:05;100115.16;;;23.23;100.00
8641;BME280;4358;42.100;25.222;2022-07-29T04:57:32;100115.78;;;23.33;100.00
8641;BME280;4358;42.100;25.222;2022-07-29T04:59:59;100121.78;;;23.43;100.00
8641;BME280;4358;42.100;25.222;2022-07-29T05:02:26;100124.47;;;23.51;100.00
8641;BME280;4358;42.100;25.222;2022-07-29T05:04:54;100120.03;;;23.58;100.00
8641;BME280;4358;42.100;25.222;2022-07-29T05:07:21;100120.66;;;23.60;100.00
8641;BME280;4358;42.100;25.222;2022-07-29T05:09:48;100126.72;;;23.71;100.00
8641;BME280;4358;42.100;25.222;2022-07-29T05:12:15;100126.63;;;23.79;100.00
8641;BME280;4358;42.100;25.222;2022-07-29T05:14:42;100125.06;;;23.84;100.00
8641;BME280;4358;42.100;25.222;2022-07-29T05:17:09;100130.94;;;23.88;100.00
8641;BME280;4358;42.100;25.222;2022-07-29T05:19:36;100138.88;;;24.12;100.00
8641;BME280;4358;42.100;25.222;2022-07-29T05:22:04;100129.78;;;24.28;100.00
8641;BME280;4358;42.100;25.222;2022-07-29T05:24:31;100138.09;;;24.26;100.00
8641;BME280;4358;42.100;25.222;2022-07-29T05:26:58;100135.81;;;24.30;100.00
8641;BME280;4358;42.100;25.222;2022-07-29T05:29:24;100136.91;;;24.43;100.00
8641;BME280;4358;42.100;25.222;2022-07-29T05:31:51;100140.44;;;24.59;100.00
8641;BME280;4358;42.100;25.222;2022-07-29T05:34:18;100135.09;;;24.80;100.00
8641;BME280;4358;42.100;25.222;2022-07-29T05:36:45;100135.47;;;24.77;100.00
8641;BME280;4358;42.100;25.222;2022-07-29T05:39:14;100138.69;;;24.95;100.00
8641;BME280;4358;42.100;25.222;2022-07-29T05:41:41;100144.47;;;25.07;99.93
8641;BME280;4358;42.100;25.222;2022-07-29T05:44:08;100137.88;;;25.16;98.96
8641;BME280;4358;42.100;25.222;2022-07-29T05:46:34;100140.16;;;25.33;97.93
8641;BME280;4358;42.100;25.222;2022-07-29T05:49:01;100142.84;;;25.48;97.45
8641;BME280;4358;42.100;25.222;2022-07-29T05:51:29;100153.19;;;25.74;95.71
8641;BME280;4358;42.100;25.222;2022-07-29T05:53:56;100148.75;;;25.94;93.97
8641;BME280;4358;42.100;25.222;2022-07-29T05:56:24;100151.38;;;26.09;93.22
8641;BME280;4358;42.100;25.222;2022-07-29T05:58:51;100150.66;;;26.22;92.78
8641;BME280;4358;42.100;25.222;2022-07-29T06:01:18;100151.19;;;26.32;91.67
8641;BME280;4358;42.100;25.222;2022-07-29T06:03:45;100151.50;;;26.50;90.38
8641;BME280;4358;42.100;25.222;2022-07-29T06:06:12;100148.47;;;26.66;89.49
8641;BME280;4358;42.100;25.222;2022-07-29T06:08:39;100146.03;;;26.78;89.02
8641;BME280;4358;42.100;25.222;2022-07-29T06:11:07;100152.88;;;26.95;87.27
8641;BME280;4358;42.100;25.222;2022-07-29T06:13:35;100151.38;;;26.92;87.11
8641;BME280;4358;42.100;25.222;2022-07-29T06:16:02;100149.94;;;27.03;86.91
8641;BME280;4358;42.100;25.222;2022-07-29T06:18:29;100147.94;;;27.25;86.41
8641;BME280;4358;42.100;25.222;2022-07-29T06:20:56;100158.53;;;27.54;85.20
8641;BME280;4358;42.100;25.222;2022-07-29T06:23:23;100145.38;;;27.84;82.29
8641;BME280;4358;42.100;25.222;2022-07-29T06:25:50;100155.03;;;28.00;80.50
8641;BME280;4358;42.100;25.222;2022-07-29T06:28:17;100146.63;;;28.01;79.33
8641;BME280;4358;42.100;25.222;2022-07-29T06:30:45;100133.81;;;28.02;78.67
8641;BME280;4358;42.100;25.222;2022-07-29T06:33:16;100134.47;;;28.04;78.42
8641;BME280;4358;42.100;25.222;2022-07-29T06:35:43;100143.09;;;28.14;78.85
8641;BME280;4358;42.100;25.222;2022-07-29T06:38:11;100145.78;;;28.01;78.37
8641;BME280;4358;42.100;25.222;2022-07-29T06:40:41;100149.38;;;27.88;80.31
8641;BME280;4358;42.100;25.222;2022-07-29T06:43:25;100143.91;;;27.81;77.90
8641;BME280;4358;42.100;25.222;2022-07-29T06:45:53;100149.78;;;27.92;78.53
8641;BME280;4358;42.100;25.222;2022-07-29T06:48:20;100140.13;;;28.09;76.37
8641;BME280;4358;42.100;25.222;2022-07-29T06:50:47;100133.84;;;28.21;76.05
8641;BME280;4358;42.100;25.222;2022-07-29T06:53:14;100143.09;;;28.40;72.37
8641;BME280;4358;42.100;25.222;2022-07-29T06:55:41;100139.66;;;28.58;71.49
8641;BME280;4358;42.100;25.222;2022-07-29T06:58:08;100138.41;;;28.74;66.69
8641;BME280;4358;42.100;25.222;2022-07-29T07:00:35;100127.44;;;28.93;64.48
8641;BME280;4358;42.100;25.222;2022-07-29T07:03:03;100131.94;;;29.19;63.02
8641;BME280;4358;42.100;25.222;2022-07-29T07:05:30;100128.91;;;29.40;62.63
8641;BME280;4358;42.100;25.222;2022-07-29T07:07:57;100125.81;;;29.62;61.89
8641;BME280;4358;42.100;25.222;2022-07-29T07:10:24;100130.31;;;29.81;62.03
8641;BME280;4358;42.100;25.222;2022-07-29T07:12:50;100131.63;;;30.03;60.61
8641;BME280;4358;42.100;25.222;2022-07-29T07:15:17;100131.00;;;30.01;57.83
8641;BME280;4358;42.100;25.222;2022-07-29T07:17:47;100123.94;;;29.87;56.51
8641;BME280;4358;42.100;25.222;2022-07-29T07:20:16;100111.31;;;29.93;54.63
8641;BME280;4358;42.100;25.222;2022-07-29T07:22:43;100124.31;;;29.97;53.82
8641;BME280;4358;42.100;25.222;2022-07-29T07:25:10;100117.78;;;30.23;55.29
8641;BME280;4358;42.100;25.222;2022-07-29T07:27:38;100113.56;;;30.45;54.44
8641;BME280;4358;42.100;25.222;2022-07-29T07:30:06;100118.97;;;30.52;55.01
8641;BME280;4358;42.100;25.222;2022-07-29T07:32:34;100121.56;;;30.47;54.77
8641;BME280;4358;42.100;25.222;2022-07-29T07:35:02;100113.78;;;30.44;52.56
8641;BME280;4358;42.100;25.222;2022-07-29T07:37:31;100120.44;;;30.29;52.64
8641;BME280;4358;42.100;25.222;2022-07-29T07:39:58;100123.41;;;30.46;49.78
8641;BME280;4358;42.100;25.222;2022-07-29T07:42:25;100115.03;;;30.41;50.24
8641;BME280;4358;42.100;25.222;2022-07-29T07:44:53;100124.16;;;30.60;49.14
8641;BME280;4358;42.100;25.222;2022-07-29T07:47:20;100121.72;;;30.52;47.58
8641;BME280;4358;42.100;25.222;2022-07-29T07:49:46;100119.63;;;30.72;47.14
8641;BME280;4358;42.100;25.222;2022-07-29T07:52:14;100121.13;;;30.86;46.66
8641;BME280;4358;42.100;25.222;2022-07-29T07:54:43;100121.84;;;30.93;45.41
8641;BME280;4358;42.100;25.222;2022-07-29T07:57:10;100120.13;;;31.17;44.77
8641;BME280;4358;42.100;25.222;2022-07-29T07:59:37;100118.56;;;31.51;43.80
8641;BME280;4358;42.100;25.222;2022-07-29T08:02:05;100119.28;;;31.88;43.33
8641;BME280;4358;42.100;25.222;2022-07-29T08:04:32;100114.31;;;32.08;43.70
8641;BME280;4358;42.100;25.222;2022-07-29T08:06:59;100111.25;;;32.28;42.59
8641;BME280;4358;42.100;25.222;2022-07-29T08:09:27;100104.66;;;32.41;43.09
8641;BME280;4358;42.100;25.222;2022-07-29T08:11:56;100100.50;;;32.38;42.78
8641;BME280;4358;42.100;25.222;2022-07-29T08:14:24;100106.72;;;32.33;43.60
8641;BME280;4358;42.100;25.222;2022-07-29T08:16:51;100106.94;;;32.55;44.00
8641;BME280;4358;42.100;25.222;2022-07-29T08:19:18;100096.50;;;32.92;40.88
8641;BME280;4358;42.100;25.222;2022-07-29T08:21:45;100089.72;;;33.11;39.01
8641;BME280;4358;42.100;25.222;2022-07-29T08:24:12;100097.47;;;33.26;39.37
8641;BME280;4358;42.100;25.222;2022-07-29T08:26:57;100096.34;;;33.39;38.77
8641;BME280;4358;42.100;25.222;2022-07-29T08:29:24;100100.44;;;33.53;38.64
8641;BME280;4358;42.100;25.222;2022-07-29T08:31:51;100099.66;;;33.41;38.60
8641;BME280;4358;42.100;25.222;2022-07-29T08:34:18;100087.63;;;33.58;37.69
8641;BME280;4358;42.100;25.222;2022-07-29T08:36:45;100092.56;;;33.73;37.73
8641;BME280;4358;42.100;25.222;2022-07-29T08:39:11;100090.44;;;33.63;39.00
8641;BME280;4358;42.100;25.222;2022-07-29T08:41:38;100087.69;;;33.63;38.42
8641;BME280;4358;42.100;25.222;2022-07-29T08:44:06;100093.91;;;33.71;37.93
8641;BME280;4358;42.100;25.222;2022-07-29T08:46:37;100092.13;;;33.65;37.66
8641;BME280;4358;42.100;25.222;2022-07-29T08:49:04;100081.09;;;33.48;38.01
8641;BME280;4358;42.100;25.222;2022-07-29T08:51:33;100075.91;;;33.80;37.90
8641;BME280;4358;42.100;25.222;2022-07-29T08:54:01;100086.72;;;34.03;37.98
8641;BME280;4358;42.100;25.222;2022-07-29T08:56:29;100075.53;;;34.10;37.48
8641;BME280;4358;42.100;25.222;2022-07-29T08:58:58;100077.72;;;34.24;37.99
8641;BME280;4358;42.100;25.222;2022-07-29T09:01:27;100070.50;;;34.40;38.07
8641;BME280;4358;42.100;25.222;2022-07-29T09:03:56;100068.13;;;34.10;37.56
8641;BME280;4358;42.100;25.222;2022-07-29T09:06:29;100067.44;;;34.36;37.40
8641;BME280;4358;42.100;25.222;2022-07-29T09:08:59;100061.34;;;34.34;36.69
8641;BME280;4358;42.100;25.222;2022-07-29T09:11:27;100057.44;;;34.52;36.83
8641;BME280;4358;42.100;25.222;2022-07-29T09:13:54;100058.28;;;34.53;37.51
8641;BME280;4358;42.100;25.222;2022-07-29T09:16:21;100041.88;;;34.63;36.85
8641;BME280;4358;42.100;25.222;2022-07-29T09:18:49;100053.06;;;34.73;36.14
8641;BME280;4358;42.100;25.222;2022-07-29T09:21:17;100057.34;;;34.25;36.86
8641;BME280;4358;42.100;25.222;2022-07-29T09:24:04;100052.75;;;34.14;37.03
8641;BME280;4358;42.100;25.222;2022-07-29T09:26:33;100053.47;;;34.43;36.77
8641;BME280;4358;42.100;25.222;2022-07-29T09:29:07;100058.28;;;34.53;36.87
8641;BME280;4358;42.100;25.222;2022-07-29T09:31:37;100053.50;;;34.86;36.67
8641;BME280;4358;42.100;25.222;2022-07-29T09:34:08;100042.97;;;35.05;36.10
8641;BME280;4358;42.100;25.222;2022-07-29T09:36:39;100049.13;;;35.17;36.18
8641;BME280;4358;42.100;25.222;2022-07-29T09:39:06;100052.63;;;35.30;35.49
8641;BME280;4358;42.100;25.222;2022-07-29T09:41:47;100040.34;;;35.42;35.28
8641;BME280;4358;42.100;25.222;2022-07-29T09:44:15;100039.13;;;35.65;34.38
8641;BME280;4358;42.100;25.222;2022-07-29T09:46:56;100047.69;;;35.63;34.72
8641;BME280;4358;42.100;25.222;2022-07-29T09:49:25;100041.97;;;35.70;33.68
8641;BME280;4358;42.100;25.222;2022-07-29T09:52:00;100029.44;;;35.89;33.35
8641;BME280;4358;42.100;25.222;2022-07-29T09:54:29;100035.41;;;35.76;33.39
8641;BME280;4358;42.100;25.222;2022-07-29T09:57:03;100020.63;;;35.97;32.85
8641;BME280;4358;42.100;25.222;2022-07-29T09:59:31;100026.84;;;35.78;33.35
8641;BME280;4358;42.100;25.222;2022-07-29T10:01:58;100021.19;;;35.94;33.12
8641;BME280;4358;42.100;25.222;2022-07-29T10:04:38;100018.50;;;36.09;32.65
8641;BME280;4358;42.100;25.222;2022-07-29T10:07:05;100018.06;;;36.28;32.31
8641;BME280;4358;42.100;25.222;2022-07-29T10:09:33;100010.47;;;36.08;32.26
8641;BME280;4358;42.100;25.222;2022-07-29T10:12:05;99996.81;;;36.33;32.09
8641;BME280;4358;42.100;25.222;2022-07-29T10:14:32;100009.34;;;36.51;31.60
8641;BME280;4358;42.100;25.222;2022-07-29T10:17:00;100015.16;;;36.55;31.93
8641;BME280;4358;42.100;25.222;2022-07-29T10:19:28;100006.53;;;36.36;31.33
8641;BME280;4358;42.100;25.222;2022-07-29T10:21:58;100005.16;;;36.38;32.05
8641;BME280;4358;42.100;25.222;2022-07-29T10:24:27;100008.09;;;36.69;30.94
8641;BME280;4358;42.100;25.222;2022-07-29T10:26:56;99995.69;;;36.86;31.02
8641;BME280;4358;42.100;25.222;2022-07-29T10:29:23;99997.63;;;36.91;30.84
8641;BME280;4358;42.100;25.222;2022-07-29T10:31:59;99992.41;;;37.05;30.64
8641;BME280;4358;42.100;25.222;2022-07-29T10:34:43;99992.38;;;36.84;30.70
8641;BME280;4358;42.100;25.222;2022-07-29T10:37:22;99988.97;;;36.62;30.84
8641;BME280;4358;42.100;25.222;2022-07-29T10:39:55;99986.13;;;36.47;31.02
8641;BME280;4358;42.100;25.222;2022-07-29T10:42:28;99988.44;;;36.70;31.45
8641;BME280;4358;42.100;25.222;2022-07-29T10:44:56;99984.28;;;36.63;30.58
8641;BME280;4358;42.100;25.222;2022-07-29T10:47:25;99976.19;;;36.51;30.27
8641;BME280;4358;42.100;25.222;2022-07-29T10:49:56;99967.47;;;36.74;30.23
8641;BME280;4358;42.100;25.222;2022-07-29T10:52:25;99963.06;;;37.04;29.61
8641;BME280;4358;42.100;25.222;2022-07-29T10:55:30;99971.84;;;36.65;29.99
8641;BME280;4358;42.100;25.222;2022-07-29T10:58:12;99963.03;;;36.83;29.85
8641;BME280;4358;42.100;25.222;2022-07-29T11:00:39;99963.13;;;37.09;29.63
8641;BME280;4358;42.100;25.222;2022-07-29T11:03:06;99964.75;;;37.05;28.24
8641;BME280;4358;42.100;25.222;2022-07-29T11:05:51;99966.94;;;37.08;28.79
8641;BME280;4358;42.100;25.222;2022-07-29T11:08:22;99955.38;;;37.16;28.62
8641;BME280;4358;42.100;25.222;2022-07-29T11:13:57;99952.88;;;37.24;29.02
8641;BME280;4358;42.100;25.222;2022-07-29T11:16:24;99950.94;;;37.10;29.02
8641;BME280;4358;42.100;25.222;2022-07-29T11:19:20;99945.41;;;37.30;29.93
8641;BME280;4358;42.100;25.222;2022-07-29T11:21:47;99948.41;;;37.03;29.47
8641;BME280;4358;42.100;25.222;2022-07-29T11:24:19;99947.84;;;36.91;29.95
8641;BME280;4358;42.100;25.222;2022-07-29T11:27:07;99928.81;;;37.20;29.92
8641;BME280;4358;42.100;25.222;2022-07-29T11:29:35;99938.22;;;37.29;29.45
8641;BME280;4358;42.100;25.222;2022-07-29T11:32:12;99928.22;;;37.53;29.30
8641;BME280;4358;42.100;25.222;2022-07-29T11:34:41;99921.88;;;37.73;29.21
8641;BME280;4358;42.100;25.222;2022-07-29T11:37:22;99923.72;;;37.98;28.71
8641;BME280;4358;42.100;25.222;2022-07-29T11:40:11;99920.47;;;37.75;27.91
8641;BME280;4358;42.100;25.222;2022-07-29T11:42:40;99914.41;;;37.58;27.85
8641;BME280;4358;42.100;25.222;2022-07-29T11:45:09;99903.31;;;37.53;27.44
8641;BME280;4358;42.100;25.222;2022-07-29T11:47:38;99909.09;;;37.77;27.65
8641;BME280;4358;42.100;25.222;2022-07-29T11:50:08;99911.56;;;37.94;27.82
8641;BME280;4358;42.100;25.222;2022-07-29T11:52:36;99915.50;;;37.72;27.55
8641;BME280;4358;42.100;25.222;2022-07-29T11:55:11;99912.44;;;37.64;27.68
8641;BME280;4358;42.100;25.222;2022-07-29T11:57:46;99903.31;;;37.73;28.18
8641;BME280;4358;42.100;25.222;2022-07-29T12:00:22;99885.03;;;37.67;28.30
8641;BME280;4358;42.100;25.222;2022-07-29T12:02:49;99894.19;;;37.63;27.97
8641;BME280;4358;42.100;25.222;2022-07-29T12:05:19;99889.22;;;37.60;28.23
8641;BME280;4358;42.100;25.222;2022-07-29T12:07:46;99888.66;;;37.58;28.65
8641;BME280;4358;42.100;25.222;2022-07-29T12:10:15;99888.38;;;37.39;27.90
8641;BME280;4358;42.100;25.222;2022-07-29T12:12:42;99889.50;;;37.18;28.57
8641;BME280;4358;42.100;25.222;2022-07-29T12:15:17;99885.88;;;37.38;28.23
8641;BME280;4358;42.100;25.222;2022-07-29T12:17:46;99882.78;;;37.80;27.71
8641;BME280;4358;42.100;25.222;2022-07-29T12:20:22;99883.41;;;37.61;27.91
8641;BME280;4358;42.100;25.222;2022-07-29T12:22:49;99882.28;;;37.32;28.46
8641;BME280;4358;42.100;25.222;2022-07-29T12:25:17;99886.47;;;37.19;27.87
8641;BME280;4358;42.100;25.222;2022-07-29T12:27:44;99882.84;;;36.78;28.74
8641;BME280;4358;42.100;25.222;2022-07-29T12:30:13;99877.06;;;37.15;28.45
8641;BME280;4358;42.100;25.222;2022-07-29T12:32:42;99880.94;;;37.14;28.58
8641;BME280;4358;42.100;25.222;2022-07-29T12:35:11;99878.41;;;36.98;28.90
8641;BME280;4358;42.100;25.222;2022-07-29T12:37:40;99864.84;;;37.06;28.52
8641;BME280;4358;42.100;25.222;2022-07-29T12:40:09;99869.03;;;37.19;28.36
8641;BME280;4358;42.100;25.222;2022-07-29T12:42:38;99875.13;;;37.21;28.66
8641;BME280;4358;42.100;25.222;2022-07-29T12:45:06;99865.69;;;37.22;28.11
8641;BME280;4358;42.100;25.222;2022-07-29T12:47:33;99868.44;;;37.67;28.02
8641;BME280;4358;42.100;25.222;2022-07-29T12:50:10;99857.03;;;37.84;27.13
8641;BME280;4358;42.100;25.222;2022-07-29T12:52:37;99856.69;;;37.91;26.40
8641;BME280;4358;42.100;25.222;2022-07-29T12:55:05;99860.28;;;37.96;26.79
8641;BME280;4358;42.100;25.222;2022-07-29T12:57:45;99854.66;;;38.16;27.03
8641;BME280;4358;42.100;25.222;2022-07-29T13:00:14;99848.56;;;38.20;26.31
8641;BME280;4358;42.100;25.222;2022-07-29T13:02:42;99848.28;;;38.26;26.89
8641;BME280;4358;42.100;25.222;2022-07-29T13:05:10;99854.47;;;38.03;26.95
8641;BME280;4358;42.100;25.222;2022-07-29T13:07:38;99839.41;;;38.24;27.13
8641;BME280;4358;42.100;25.222;2022-07-29T13:10:13;99841.50;;;38.42;27.33
8641;BME280;4358;42.100;25.222;2022-07-29T13:13:03;99846.59;;;38.25;27.23